Weather forecast for Bozoy (Бозой)

Russia, 588 m
N53.011, E104.880


Sounding

Red line — air temperature ˚C.
Blue line — thermal bubble temperature ˚C.
Green line — dew point temperature ˚C.
Wind speed is in meters per second.

Table forecast

GFS 0.25˚ model

temp. wind gust humid. clouds prec. press. hpbl
Wed18 00:00 5 63.0 ene 2 2 74 0 0.0 1023 22
03:00 4 58.0 ene 2 3 77 0 0.0 1022 23
06:00 4 59.0 ene 2 3 77 61 0.0 1021 31
09:00 6 69.0 ene 2 2 70 79 0.0 1021 74
12:00 12 179.0 s 2 2 57 99 0.0 1019 407
15:00 18 265.0 w 4 7 45 93 0.0 1018 1349
18:00 17 298.0 wnw 4 6 51 97 0.0 1017 945
21:00 10 282.0 wnw 2 2 79 50 0.0 1019 22
 
Thu19 00:00 9 335.0 nnw 2 3 84 48 0.2 1020 86
03:00 9 233.0 sw 2 2 94 74 1.6 1021 50
06:00 9 244.0 wsw 3 4 92 100 0.3 1021 127
09:00 9 265.0 w 2 3 93 100 0.8 1023 154
12:00 12 291.0 wnw 3 4 76 95 0.0 1023 663
15:00 13 256.0 wsw 4 5 73 98 0.1 1022 868
18:00 13 261.0 w 4 6 75 98 0.9 1021 829
21:00 9 275.0 w 1 2 89 52 1.1 1022 22
 
Fri20 00:00 8 255.0 wsw 1 1 92 0 0.0 1023 22
03:00 7 247.0 wsw 1 1 92 0 0.0 1023 22
06:00 6 110.0 ese 1 1 92 59 0.0 1023 22
09:00 8 105.0 ese 1 1 89 78 0.0 1023 31
12:00 14 169.0 s 2 3 65 61 0.0 1021 382
15:00 19 218.0 sw 3 4 46 53 0.0 1019 824
18:00 19 206.0 ssw 2 3 47 0 0.0 1018 1095
21:00 12 121.0 ese 1 1 71 0 0.0 1019 23
 
Sat21 00:00 10 107.0 ese 1 2 80 0 0.0 1019 22
03:00 9 78.0 ene 1 2 76 29 0.0 1018 22
06:00 8 72.0 ene 2 2 76 30 0.0 1018 22
09:00 9 69.0 ene 2 2 74 22 0.0 1018 35
12:00 17 142.0 se 2 3 55 55 0.0 1017 405
15:00 21 192.0 ssw 3 3 45 60 0.0 1015 753
18:00 21 223.0 sw 2 2 45 42 0.0 1016 735
21:00 14 41.0 ne 0 1 72 21 0.0 1018 23
 
Sun22 00:00 11 282.0 wnw 1 1 80 62 0.0 1021 23
03:00 9 56.0 ne 2 3 91 49 0.0 1023 38
06:00 8 17.0 nne 1 2 90 55 0.0 1023 22
09:00 9 329.0 nnw 1 1 77 38 0.0 1024 41
12:00 15 241.0 wsw 0 1 60 88 0.0 1024 481
15:00 18 195.0 ssw 1 1 50 77 0.0 1022 970
18:00 18 183.0 s 2 2 51 0 0.0 1022 677
21:00 12 53.0 ne 1 1 75 0 0.0 1023 23
 

0.013 s